Time;durP1;ratioP1;P1;durP2;ratioP2;P2;SDS_P1;SDS_P2;PMS_P1;PMS_P2;Temp;Humidity;BMP_temperature;BMP_pressure;BME280_temperature;BME280_humidity;BME280_pressure;Samples;Min_cycle;Max_cycle;Signal;HPM_P1;HPM_P2
2024/02/08 00:01:00;;;;;;;331.63;82.37;;;;;5.70;95667.00;;;;5068791;28;20438;-73
2024/02/08 00:03:50;;;;;;;322.63;76.77;;;;;5.40;95663.00;;;;5068198;28;20442;-73
2024/02/08 00:06:39;;;;;;;323.13;78.47;;;;;5.90;95672.00;;;;5068348;28;21043;-73
2024/02/08 00:09:28;;;;;;;320.10;78.57;;;;;6.60;95665.00;;;;5069601;28;20798;-73
2024/02/08 00:12:17;;;;;;;322.70;79.70;;;;;6.90;95674.00;;;;5070057;28;20419;-73
2024/02/08 00:15:09;;;;;;;323.53;84.27;;;;;6.90;95670.00;;;;5068570;28;20425;-72
2024/02/08 00:17:58;;;;;;;302.13;81.63;;;;;6.60;95679.00;;;;5067050;28;20457;-71
2024/02/08 00:20:48;;;;;;;316.00;80.63;;;;;6.10;95680.00;;;;5064516;28;20997;-74
2024/02/08 00:23:37;;;;;;;323.80;80.73;;;;;6.70;95673.00;;;;5069147;28;20508;-73
2024/02/08 00:26:26;;;;;;;324.73;82.57;;;;;6.90;95674.00;;;;5070065;28;20422;-70
2024/02/08 00:29:16;;;;;;;335.37;85.67;;;;;6.20;95666.00;;;;5068092;28;20430;-70
2024/02/08 00:32:07;;;;;;;320.90;81.40;;;;;5.80;95655.00;;;;5069550;28;20418;-70
2024/02/08 00:34:56;;;;;;;280.57;82.23;;;;;5.70;95649.00;;;;5067006;28;20475;-70
2024/02/08 00:37:47;;;;;;;304.57;77.77;;;;;5.80;95648.00;;;;5069273;28;20435;-71
2024/02/08 00:40:37;;;;;;;315.60;78.40;;;;;6.10;95655.00;;;;5064964;28;21147;-71
2024/02/08 00:43:26;;;;;;;298.40;85.10;;;;;5.80;95652.00;;;;5066821;28;20432;-70
2024/02/08 00:46:15;;;;;;;309.13;75.63;;;;;6.40;95651.00;;;;5065320;28;20466;-73
2024/02/08 00:49:07;;;;;;;324.97;80.57;;;;;6.50;95654.00;;;;5066784;28;20950;-72
2024/02/08 00:51:56;;;;;;;325.20;81.17;;;;;6.00;95651.00;;;;5066534;28;20423;-71
2024/02/08 00:54:45;;;;;;;320.03;79.23;;;;;6.00;95647.00;;;;5064153;28;20779;-73
2024/02/08 00:57:34;;;;;;;319.47;80.00;;;;;6.10;95648.00;;;;5070531;28;20429;-71
2024/02/08 01:00:23;;;;;;;323.03;80.07;;;;;6.20;95645.00;;;;5065209;28;20469;-70
2024/02/08 01:03:13;;;;;;;332.73;83.73;;;;;6.10;95654.00;;;;5068414;28;20449;-72
2024/02/08 01:06:04;;;;;;;329.13;81.10;;;;;6.50;95647.00;;;;5067299;28;20429;-72
2024/02/08 01:08:54;;;;;;;328.77;81.80;;;;;6.50;95649.00;;;;5065894;28;20417;-71
2024/02/08 01:11:43;;;;;;;316.07;80.47;;;;;6.30;95638.00;;;;5068872;28;20939;-71
2024/02/08 01:14:32;;;;;;;323.40;77.47;;;;;6.60;95643.00;;;;5065973;28;20426;-71
2024/02/08 01:17:21;;;;;;;323.80;78.10;;;;;6.70;95643.00;;;;5068452;28;20414;-71
2024/02/08 01:20:11;;;;;;;328.60;81.80;;;;;6.60;95640.00;;;;5068097;28;20856;-71
2024/02/08 01:23:04;;;;;;;325.87;78.90;;;;;6.80;95627.00;;;;5066701;28;20549;-72
2024/02/08 01:25:53;;;;;;;317.60;76.50;;;;;6.90;95643.00;;;;5064857;28;20423;-70
2024/02/08 01:28:42;;;;;;;327.93;85.63;;;;;6.90;95631.00;;;;5067205;28;20427;-71
2024/02/08 01:31:35;;;;;;;311.57;80.03;;;;;6.90;95629.00;;;;5068459;28;20450;-70
2024/02/08 01:34:25;;;;;;;310.50;79.63;;;;;6.90;95628.00;;;;5065161;28;20423;-70
2024/02/08 01:37:14;;;;;;;319.23;78.03;;;;;6.80;95628.00;;;;5067457;28;20439;-70
2024/02/08 01:40:07;;;;;;;333.77;89.17;;;;;6.50;95621.00;;;;5064681;28;20539;-69
2024/02/08 01:42:58;;;;;;;321.10;81.90;;;;;6.50;95607.00;;;;5066277;28;20425;-71
2024/02/08 01:45:47;;;;;;;309.07;80.47;;;;;6.80;95609.00;;;;5067939;28;20423;-71
2024/02/08 01:48:41;;;;;;;334.60;84.37;;;;;6.50;95607.00;;;;5065959;28;20805;-70
2024/02/08 01:51:30;;;;;;;324.57;79.30;;;;;6.70;95607.00;;;;5066044;28;20821;-70
2024/02/08 01:54:20;;;;;;;328.07;80.93;;;;;6.80;95606.00;;;;5067477;28;20414;-70
2024/02/08 01:57:11;;;;;;;333.70;83.03;;;;;7.30;95607.00;;;;5067838;28;20429;-71
2024/02/08 02:00:00;;;;;;;340.47;88.07;;;;;6.90;95599.00;;;;5064476;28;20473;-69
2024/02/08 02:02:53;;;;;;;329.13;81.23;;;;;6.90;95600.00;;;;5068590;28;20423;-72
2024/02/08 02:05:46;;;;;;;318.33;76.03;;;;;6.70;95606.00;;;;5067386;28;20439;-71
2024/02/08 02:08:36;;;;;;;336.40;86.23;;;;;5.90;95595.00;;;;5065950;28;20422;-74
2024/02/08 02:11:30;;;;;;;324.27;80.67;;;;;6.00;95583.00;;;;5064001;28;20446;-71
2024/02/08 02:14:24;;;;;;;321.10;76.37;;;;;6.70;95586.00;;;;5063144;28;20414;-72
2024/02/08 02:17:15;;;;;;;334.50;84.63;;;;;6.90;95585.00;;;;5067498;28;20430;-73
2024/02/08 02:20:06;;;;;;;330.97;81.77;;;;;7.00;95587.00;;;;5065395;28;20520;-72
2024/02/08 02:22:58;;;;;;;324.57;79.60;;;;;6.20;95581.00;;;;5063759;28;20481;-72
2024/02/08 02:26:08;;;;;;;327.97;80.53;;;;;5.20;95590.00;;;;5068523;22;21013;-87
2024/02/08 02:28:58;;;;;;;324.53;79.37;;;;;5.80;95586.00;;;;5047931;28;20439;-86
2024/02/08 02:31:47;;;;;;;320.33;77.57;;;;;6.50;95593.00;;;;5052670;28;20481;-86
2024/02/08 02:34:38;;;;;;;324.77;78.60;;;;;6.80;95589.00;;;;5054552;28;20811;-86
2024/02/08 02:37:29;;;;;;;287.43;78.97;;;;;6.60;95595.00;;;;5052419;28;20902;-83
2024/02/08 02:40:23;;;;;;;274.00;83.83;;;;;6.10;95590.00;;;;5054392;28;20474;-86
2024/02/08 02:43:13;;;;;;;329.43;82.50;;;;;5.50;95609.00;;;;5052550;28;20498;-86
2024/02/08 02:46:04;;;;;;;325.43;80.97;;;;;6.40;95612.00;;;;5049811;28;20439;-86
2024/02/08 02:48:53;;;;;;;317.93;75.83;;;;;6.80;95625.00;;;;5052279;28;20955;-87
2024/02/08 02:51:44;;;;;;;320.07;80.83;;;;;7.10;95614.00;;;;5056589;28;20454;-86
2024/02/08 02:54:33;;;;;;;320.13;77.37;;;;;7.50;95605.00;;;;5050784;28;20975;-84
2024/02/08 02:57:24;;;;;;;325.63;77.97;;;;;7.00;95605.00;;;;5054596;28;20438;-85
2024/02/08 03:00:22;;;;;;;325.53;79.80;;;;;7.00;95604.00;;;;5053018;28;20474;-85
2024/02/08 03:03:13;;;;;;;336.33;86.03;;;;;7.10;95594.00;;;;5054937;28;20451;-86
2024/02/08 03:06:02;;;;;;;335.87;83.00;;;;;7.10;95603.00;;;;5050101;28;20447;-87
2024/02/08 03:08:51;;;;;;;327.03;79.33;;;;;7.00;95604.00;;;;5049525;28;21132;-84
2024/02/08 03:11:41;;;;;;;327.03;79.50;;;;;6.80;95609.00;;;;5048749;28;20435;-86
2024/02/08 03:14:34;;;;;;;326.73;80.83;;;;;6.50;95605.00;;;;5050785;28;20808;-87
2024/02/08 03:17:23;;;;;;;325.27;79.33;;;;;6.80;95590.00;;;;5051043;28;20901;-84
2024/02/08 03:20:17;;;;;;;320.43;79.47;;;;;7.50;95599.00;;;;5053050;28;20520;-86
2024/02/08 03:23:06;;;;;;;335.00;85.03;;;;;7.60;95606.00;;;;5052948;28;20772;-86
2024/02/08 03:25:56;;;;;;;327.23;80.57;;;;;6.90;95618.00;;;;5049803;28;20447;-84
2024/02/08 03:28:46;;;;;;;328.37;80.93;;;;;7.10;95619.00;;;;5054852;28;20428;-85
2024/02/08 03:31:45;;;;;;;326.30;78.97;;;;;7.00;95615.00;;;;5063283;28;20451;-85
2024/02/08 03:34:35;;;;;;;322.20;78.37;;;;;7.00;95612.00;;;;5072415;28;20422;-85
2024/02/08 03:37:24;;;;;;;323.70;78.67;;;;;6.70;95618.00;;;;5053905;28;20432;-85
2024/02/08 03:40:14;;;;;;;342.33;89.07;;;;;7.20;95623.00;;;;5061477;28;20478;-87
2024/02/08 03:43:04;;;;;;;332.93;83.20;;;;;7.50;95624.00;;;;5057327;28;20444;-85
2024/02/08 03:45:56;;;;;;;323.33;77.13;;;;;6.70;95618.00;;;;5055624;28;20443;-86
2024/02/08 03:48:46;;;;;;;326.57;81.37;;;;;6.90;95616.00;;;;5055983;28;20848;-85
2024/02/08 03:51:37;;;;;;;324.23;78.03;;;;;6.80;95625.00;;;;5058668;28;20447;-86
2024/02/08 03:54:30;;;;;;;325.90;79.40;;;;;6.20;95615.00;;;;5059009;28;20434;-85
2024/02/08 03:57:19;;;;;;;323.33;78.87;;;;;6.40;95609.00;;;;5056180;28;20433;-85
2024/02/08 04:00:13;;;;;;;332.33;82.40;;;;;6.10;95618.00;;;;5053235;28;20443;-85
2024/02/08 04:03:06;;;;;;;320.87;79.37;;;;;6.20;95628.00;;;;5058386;28;20435;-85
2024/02/08 04:06:03;;;;;;;322.90;77.97;;;;;6.80;95622.00;;;;5061560;28;20438;-85
2024/02/08 04:09:16;;;;;;;307.67;78.67;;;;;7.40;95632.00;;;;5056483;28;20419;-85
2024/02/08 04:56:07;;;;;;;332.67;83.47;;;;;6.90;95618.00;;;;5051884;28;20437;-86
2024/02/08 04:58:58;;;;;;;312.90;79.70;;;;;7.00;95631.00;;;;5053064;28;20427;-87
2024/02/08 05:01:53;;;;;;;324.27;79.63;;;;;7.10;95620.00;;;;5054345;28;20463;-87
2024/02/08 05:04:43;;;;;;;327.23;81.37;;;;;7.20;95634.00;;;;5054452;28;21285;-86
2024/02/08 05:07:35;;;;;;;295.83;79.80;;;;;6.60;95633.00;;;;5055536;28;20823;-87
2024/02/08 05:10:28;;;;;;;286.80;79.80;;;;;6.50;95636.00;;;;5057552;28;20413;-86
2024/02/08 05:13:17;;;;;;;314.57;83.13;;;;;7.00;95627.00;;;;5055436;28;20446;-87
2024/02/08 05:16:08;;;;;;;324.27;80.27;;;;;6.30;95613.00;;;;5053161;28;20807;-87
2024/02/08 05:18:57;;;;;;;325.70;80.13;;;;;6.50;95616.00;;;;5057706;28;20423;-86
2024/02/08 05:21:47;;;;;;;325.70;79.97;;;;;6.90;95621.00;;;;5054366;28;20847;-86
2024/02/08 05:24:36;;;;;;;322.57;77.73;;;;;6.70;95625.00;;;;5055502;28;20442;-86
2024/02/08 05:27:26;;;;;;;325.77;80.43;;;;;6.10;95629.00;;;;5052470;28;20423;-86
2024/02/08 05:30:19;;;;;;;324.97;82.77;;;;;6.60;95627.00;;;;5051802;28;20813;-86
2024/02/08 05:33:08;;;;;;;329.93;84.17;;;;;6.60;95633.00;;;;5051796;28;20424;-86
2024/02/08 05:35:58;;;;;;;326.27;81.00;;;;;6.90;95637.00;;;;5052427;28;20447;-86
2024/02/08 05:38:52;;;;;;;326.90;81.93;;;;;7.00;95631.00;;;;5056993;28;20431;-85
2024/02/08 05:41:44;;;;;;;315.63;84.70;;;;;6.70;95642.00;;;;5051943;28;20478;-85
2024/02/08 05:44:40;;;;;;;311.13;77.67;;;;;6.10;95636.00;;;;5062321;28;20434;-86
2024/02/08 05:47:36;;;;;;;326.00;79.53;;;;;6.00;95625.00;;;;5054298;28;20444;-86
2024/02/08 05:50:25;;;;;;;307.63;77.93;;;;;6.40;95638.00;;;;5055233;28;20923;-86
2024/02/08 05:53:17;;;;;;;336.37;88.30;;;;;6.50;95643.00;;;;5055658;28;20431;-86
2024/02/08 05:56:08;;;;;;;288.33;82.83;;;;;5.80;95640.00;;;;5053257;28;20806;-86
2024/02/08 05:59:01;;;;;;;302.17;78.63;;;;;6.00;95651.00;;;;5054228;28;20442;-86
2024/02/08 06:01:54;;;;;;;315.03;77.37;;;;;5.80;95649.00;;;;5054963;28;20463;-86
2024/02/08 06:04:50;;;;;;;323.20;80.23;;;;;6.00;95666.00;;;;5054352;28;20944;-85
2024/02/08 06:07:39;;;;;;;315.83;78.67;;;;;6.10;95660.00;;;;5056829;28;20431;-86
2024/02/08 06:10:42;;;;;;;308.97;81.23;;;;;6.00;95655.00;;;;5056641;28;20481;-86
2024/02/08 06:13:32;;;;;;;301.27;77.30;;;;;5.70;95654.00;;;;5053592;28;20737;-86
2024/02/08 06:16:29;;;;;;;302.50;76.30;;;;;5.10;95656.00;;;;5054989;28;20415;-85
2024/02/08 06:19:21;;;;;;;306.57;75.93;;;;;5.10;95661.00;;;;5055243;28;21143;-86
2024/02/08 06:22:20;;;;;;;265.27;85.93;;;;;5.80;95660.00;;;;5051284;28;20849;-86
2024/02/08 06:25:27;;;;;;;319.53;81.17;;;;;5.90;95656.00;;;;5051595;28;20446;-86
2024/02/08 06:28:21;;;;;;;329.00;83.70;;;;;5.40;95668.00;;;;5051766;28;21053;-87
2024/02/08 06:31:14;;;;;;;314.13;79.63;;;;;5.20;95672.00;;;;5052163;28;20475;-86
2024/02/08 06:34:42;;;;;;;329.60;83.27;;;;;5.20;95667.00;;;;5054884;28;20447;-86
2024/02/08 06:37:31;;;;;;;299.83;77.17;;;;;5.20;95679.00;;;;5056451;28;20442;-86
2024/02/08 06:40:21;;;;;;;323.80;84.50;;;;;5.60;95688.00;;;;5051945;28;20423;-86
2024/02/08 06:43:42;;;;;;;323.07;85.07;;;;;5.90;95697.00;;;;5051547;28;20500;-87
2024/02/08 06:46:47;;;;;;;293.60;76.60;;;;;5.40;95693.00;;;;5051219;28;20462;-87
2024/02/08 07:40:00;;;;;;;414.93;150.43;;;;;5.80;95724.00;;;;4977943;28;20470;-86
2024/02/08 07:42:52;;;;;;;358.50;98.23;;;;;5.40;95723.00;;;;4979224;28;20470;-87
2024/02/08 07:45:43;;;;;;;463.90;184.67;;;;;5.60;95729.00;;;;4982799;28;20866;-86
2024/02/08 07:48:44;;;;;;;328.20;80.63;;;;;6.30;95725.00;;;;4987787;28;20470;-86
2024/02/08 07:51:34;;;;;;;320.47;77.47;;;;;6.10;95720.00;;;;5051322;28;20967;-86
2024/02/08 07:54:23;;;;;;;438.83;170.00;;;;;6.20;95727.00;;;;4999102;28;20436;-85
2024/02/08 07:57:13;;;;;;;439.80;166.57;;;;;6.60;95731.00;;;;4990185;28;22442;-86
2024/02/08 08:00:07;;;;;;;392.87;126.43;;;;;6.40;95722.00;;;;4984606;28;20826;-86
2024/02/08 08:03:00;;;;;;;422.20;153.13;;;;;6.20;95732.00;;;;4992166;28;20474;-87
2024/02/08 08:05:56;;;;;;;453.93;180.57;;;;;6.60;95725.00;;;;4990319;28;20608;-86
2024/02/08 08:08:57;;;;;;;439.70;164.47;;;;;7.00;95727.00;;;;4987842;28;20442;-86
2024/02/08 08:11:47;;;;;;;451.10;177.20;;;;;6.90;95731.00;;;;4992628;28;20992;-86
2024/02/08 08:18:02;;;;;;;367.53;107.67;;;;;6.70;95736.00;;;;4929715;28;22092;-87
2024/02/08 08:20:59;;;;;;;426.40;155.83;;;;;6.50;95734.00;;;;4933391;28;22169;-86
2024/02/08 08:23:59;;;;;;;426.27;161.80;;;;;6.80;95727.00;;;;4988269;28;20537;-87
2024/02/08 08:26:51;;;;;;;441.13;168.67;;;;;7.00;95737.00;;;;4992793;28;20497;-87
2024/02/08 08:29:42;;;;;;;374.13;111.63;;;;;7.20;95745.00;;;;4988128;28;20443;-87
2024/02/08 08:36:04;;;;;;;439.27;165.93;;;;;7.10;95735.00;;;;4927397;28;20430;-86
2024/02/08 08:38:54;;;;;;;414.63;153.10;;;;;6.60;95729.00;;;;4929778;28;20480;-86
2024/02/08 08:41:47;;;;;;;431.17;161.73;;;;;7.10;95733.00;;;;4982905;28;20558;-86
2024/02/08 08:44:36;;;;;;;434.87;164.87;;;;;7.50;95737.00;;;;4992801;28;21252;-87
2024/02/08 08:47:28;;;;;;;443.17;171.40;;;;;7.50;95736.00;;;;4992613;28;20542;-87
2024/02/08 08:50:20;;;;;;;442.33;167.53;;;;;7.50;95738.00;;;;4989898;28;20837;-87
2024/02/08 08:53:16;;;;;;;453.73;180.40;;;;;7.80;95735.00;;;;4987099;28;20474;-87
2024/02/08 08:56:10;;;;;;;338.07;86.43;;;;;7.10;95735.00;;;;5049836;28;20439;-85
2024/02/08 08:59:00;;;;;;;329.97;83.40;;;;;7.30;95731.00;;;;5051683;28;20443;-87
2024/02/08 09:01:49;;;;;;;331.17;81.73;;;;;7.70;95740.00;;;;5050813;28;20458;-86
2024/02/08 09:04:40;;;;;;;330.10;81.80;;;;;7.70;95742.00;;;;5051912;28;20420;-86
2024/02/08 09:07:30;;;;;;;343.30;91.30;;;;;8.30;95734.00;;;;5056169;28;20431;-87
2024/02/08 09:10:20;;;;;;;338.30;86.40;;;;;8.70;95729.00;;;;5049176;28;20428;-87
2024/02/08 09:13:15;;;;;;;367.53;113.13;;;;;9.00;95732.00;;;;5015341;28;20929;-87
2024/02/08 09:19:13;;;;;;;450.67;180.10;;;;;9.70;95723.00;;;;4979557;28;20442;-88
2024/02/08 09:22:06;;;;;;;334.37;88.00;;;;;10.50;95711.00;;;;5050056;28;20474;-87
2024/02/08 09:24:56;;;;;;;337.53;90.90;;;;;10.80;95718.00;;;;5045718;28;20439;-87
2024/02/08 09:27:47;;;;;;;340.67;92.43;;;;;11.20;95722.00;;;;5049663;28;20297;-86
2024/02/08 09:30:39;;;;;;;341.30;94.50;;;;;11.40;95703.00;;;;5045601;28;20379;-86
2024/02/08 09:36:48;;;;;;;428.43;169.10;;;;;11.50;95719.00;;;;5040967;28;20654;-86
2024/02/08 09:39:53;;;;;;;341.60;100.23;;;;;11.50;95733.00;;;;5050733;28;20205;-87
2024/02/08 09:42:54;;;;;;;340.93;96.63;;;;;11.00;95727.00;;;;5049809;28;20422;-87
2024/02/08 09:45:44;;;;;;;338.07;98.07;;;;;11.40;95723.00;;;;5051381;28;20813;-87
2024/02/08 09:48:43;;;;;;;343.67;101.10;;;;;11.80;95726.00;;;;5049361;28;20196;-86
2024/02/08 09:51:35;;;;;;;358.60;113.57;;;;;11.80;95723.00;;;;5048317;28;20262;-87
2024/02/08 09:54:28;;;;;;;342.07;100.10;;;;;11.80;95714.00;;;;5048359;28;20200;-87
2024/02/08 09:57:22;;;;;;;350.03;106.30;;;;;12.60;95715.00;;;;5047577;28;20211;-87
2024/02/08 10:00:34;;;;;;;352.43;109.27;;;;;13.50;95708.00;;;;5047826;28;20204;-87
2024/02/08 10:03:31;;;;;;;356.43;111.33;;;;;14.10;95711.00;;;;5046461;28;20623;-86
2024/02/08 10:06:24;;;;;;;350.17;106.60;;;;;14.10;95722.00;;;;5048812;28;20211;-86
2024/02/08 10:12:30;;;;;;;352.53;112.47;;;;;14.20;95705.00;;;;5045798;28;20221;-86
2024/02/08 10:15:26;;;;;;;358.77;117.33;;;;;14.70;95704.00;;;;5045541;28;20684;-86
2024/02/08 10:18:23;;;;;;;362.47;123.10;;;;;14.50;95699.00;;;;5048241;28;20220;-86
2024/02/08 10:21:17;;;;;;;405.07;156.17;;;;;14.30;95692.00;;;;4976799;28;20231;-88
2024/02/08 10:24:25;;;;;;;493.17;230.07;;;;;15.20;95690.00;;;;4980485;28;20359;-86
2024/02/08 10:27:20;;;;;;;439.90;183.57;;;;;14.80;95702.00;;;;4982544;28;20219;-87
2024/02/08 10:30:19;;;;;;;468.60;210.07;;;;;14.70;95693.00;;;;4985003;28;20208;-86
2024/02/08 10:33:14;;;;;;;483.67;224.47;;;;;15.30;95694.00;;;;4985697;28;20238;-87
2024/02/08 10:36:08;;;;;;;478.70;221.00;;;;;15.00;95692.00;;;;4983195;28;20285;-87
2024/02/08 10:39:08;;;;;;;359.50;128.83;;;;;14.60;95671.00;;;;5046810;28;20665;-87
2024/02/08 10:42:01;;;;;;;360.17;132.93;;;;;15.40;95671.00;;;;5049195;28;20225;-87
2024/02/08 10:44:52;;;;;;;364.63;136.90;;;;;16.00;95672.00;;;;5047105;28;20562;-87
2024/02/08 10:47:47;;;;;;;363.37;138.97;;;;;16.30;95671.00;;;;5043112;28;20200;-88
2024/02/08 10:50:41;;;;;;;368.03;155.13;;;;;17.70;95663.00;;;;5045758;28;20201;-88
2024/02/08 10:53:43;;;;;;;372.47;159.03;;;;;18.90;95658.00;;;;5048465;28;20221;-85
2024/02/08 10:56:48;;;;;;;365.90;164.30;;;;;20.10;95664.00;;;;5046620;28;20200;-85
2024/02/08 10:59:47;;;;;;;373.97;186.20;;;;;20.20;95656.00;;;;5049202;28;20195;-85
2024/02/08 11:03:00;;;;;;;374.50;201.43;;;;;21.10;95655.00;;;;5048264;28;20224;-87
2024/02/08 11:10:20;;;;;;;462.37;295.80;;;;;21.60;95640.00;;;;4998574;28;20212;-86
2024/02/08 11:17:26;;;;;;;467.93;331.73;;;;;20.20;95625.00;;;;4920026;28;20593;-88
2024/02/08 11:20:33;;;;;;;481.43;348.30;;;;;20.50;95632.00;;;;4913763;28;20359;-86
2024/02/08 11:23:31;;;;;;;466.00;338.63;;;;;19.50;95629.00;;;;4910794;28;20386;-89
2024/02/08 11:29:20;;;;;;;494.03;367.90;;;;;22.10;95613.00;;;;5068275;27;22484;-71
2024/02/08 11:32:16;;;;;;;528.70;395.90;;;;;21.90;95613.00;;;;5056557;27;20562;-71
2024/02/08 11:35:12;;;;;;;520.47;394.73;;;;;22.30;95616.00;;;;5057402;27;20256;-71
2024/02/08 11:38:15;;;;;;;487.70;374.33;;;;;22.60;95599.00;;;;5054169;27;20205;-71
2024/02/08 11:41:10;;;;;;;520.27;400.97;;;;;22.10;95597.00;;;;5056069;27;21582;-71
2024/02/08 11:44:05;;;;;;;453.77;351.60;;;;;21.70;95602.00;;;;5053549;27;20205;-70
2024/02/08 11:46:59;;;;;;;509.70;405.63;;;;;21.40;95600.00;;;;5057907;27;20200;-72
2024/02/08 11:50:00;;;;;;;519.50;412.00;;;;;20.20;95590.00;;;;5057414;27;20620;-70
2024/02/08 11:52:57;;;;;;;532.37;429.93;;;;;20.20;95600.00;;;;5060092;27;20202;-71
2024/02/08 11:55:47;;;;;;;540.63;422.23;;;;;21.10;95594.00;;;;5064847;27;20225;-71
2024/02/08 11:58:40;;;;;;;541.37;417.63;;;;;21.70;95596.00;;;;5082101;27;21521;-71
2024/02/08 12:01:32;;;;;;;509.70;398.90;;;;;22.20;95599.00;;;;5061966;27;20301;-70
2024/02/08 12:04:23;;;;;;;417.83;338.43;;;;;23.50;95573.00;;;;5109231;27;20205;-72
2024/02/08 12:07:15;;;;;;;510.70;413.53;;;;;23.80;95587.00;;;;5112801;27;20201;-72
2024/02/08 12:10:09;;;;;;;520.77;430.30;;;;;23.50;95588.00;;;;5062065;27;20211;-72
2024/02/08 12:12:59;;;;;;;532.07;452.43;;;;;24.50;95589.00;;;;5064733;27;20233;-72
2024/02/08 12:15:55;;;;;;;458.93;404.57;;;;;24.60;95591.00;;;;5059360;27;20240;-72
2024/02/08 12:18:45;;;;;;;527.50;466.27;;;;;23.80;95593.00;;;;5062754;27;20697;-71
2024/02/08 12:21:38;;;;;;;527.80;469.17;;;;;23.10;95575.00;;;;5064556;27;20199;-72
2024/02/08 12:24:31;;;;;;;455.60;408.00;;;;;22.50;95585.00;;;;5116221;27;20695;-72
2024/02/08 12:27:25;;;;;;;455.47;407.70;;;;;22.40;95587.00;;;;5142393;27;20291;-72
2024/02/08 12:30:21;;;;;;;456.80;409.13;;;;;24.40;95579.00;;;;5138857;27;20204;-72
2024/02/08 12:33:10;;;;;;;454.83;407.63;;;;;23.20;95571.00;;;;5140352;27;20215;-72
2024/02/08 12:36:00;;;;;;;451.50;404.73;;;;;21.90;95568.00;;;;5139130;27;20232;-71
2024/02/08 12:38:51;;;;;;;438.87;392.70;;;;;23.20;95556.00;;;;5134149;27;20280;-72
2024/02/08 12:41:40;;;;;;;445.40;398.80;;;;;24.70;95553.00;;;;5128905;27;20194;-72
2024/02/08 12:44:29;;;;;;;452.53;405.83;;;;;24.50;95568.00;;;;5121089;27;20201;-71
2024/02/08 12:47:19;;;;;;;469.57;421.67;;;;;25.00;95549.00;;;;5128827;27;20208;-72
2024/02/08 12:50:09;;;;;;;480.57;432.90;;;;;25.30;95537.00;;;;5125327;27;20219;-71
2024/02/08 12:52:59;;;;;;;485.93;438.53;;;;;25.10;95538.00;;;;5128059;27;20579;-71
2024/02/08 12:55:50;;;;;;;485.03;437.57;;;;;25.00;95524.00;;;;5125275;27;20708;-71
2024/02/08 12:58:39;;;;;;;497.40;449.00;;;;;25.40;95530.00;;;;5128006;27;20209;-71
2024/02/08 13:01:34;;;;;;;493.57;445.93;;;;;25.80;95539.00;;;;5127676;27;20197;-71
2024/02/08 13:04:27;;;;;;;517.00;468.37;;;;;25.10;95531.00;;;;5128097;27;20541;-71
2024/02/08 13:07:16;;;;;;;512.37;463.60;;;;;24.90;95529.00;;;;5129599;27;20209;-72
2024/02/08 13:10:14;;;;;;;487.57;440.83;;;;;26.20;95537.00;;;;5124816;27;20195;-71
2024/02/08 13:13:09;;;;;;;504.13;456.43;;;;;26.20;95525.00;;;;5127279;27;20201;-71
2024/02/08 13:16:09;;;;;;;512.83;464.43;;;;;25.90;95522.00;;;;5126251;27;20602;-71
2024/02/08 13:18:59;;;;;;;515.23;467.07;;;;;26.50;95525.00;;;;5124512;27;20203;-71
2024/02/08 13:21:48;;;;;;;521.60;473.40;;;;;27.40;95531.00;;;;5123879;27;20291;-72
2024/02/08 13:24:38;;;;;;;535.77;487.37;;;;;27.70;95530.00;;;;5119972;27;20729;-73
2024/02/08 13:27:29;;;;;;;599.90;549.27;;;;;27.40;95529.00;;;;5127668;27;20223;-71
2024/02/08 13:30:19;;;;;;;573.97;523.03;;;;;26.50;95530.00;;;;5124022;27;20206;-72
2024/02/08 13:33:10;;;;;;;588.23;536.00;;;;;26.90;95526.00;;;;5116920;27;20602;-68
2024/02/08 13:36:08;;;;;;;648.07;585.50;;;;;27.40;95521.00;;;;5050591;27;20612;-70
2024/02/08 13:38:57;;;;;;;643.60;580.80;;;;;20.90;95500.00;;;;5047521;27;20206;-70
2024/02/08 13:41:47;;;;;;;611.70;550.80;;;;;23.10;95502.00;;;;5046801;27;20305;-70
2024/02/08 13:44:36;;;;;;;573.03;515.43;;;;;24.10;95506.00;;;;5056033;27;20262;-71
2024/02/08 13:47:27;;;;;;;594.23;532.20;;;;;24.40;95507.00;;;;5096645;27;20590;-70
2024/02/08 13:50:17;;;;;;;577.23;514.33;;;;;25.70;95511.00;;;;5043639;27;20262;-69
2024/02/08 13:53:06;;;;;;;579.87;519.30;;;;;25.10;95512.00;;;;5044757;27;20206;-70
2024/02/08 13:55:58;;;;;;;569.87;510.53;;;;;25.70;95518.00;;;;5046293;27;20769;-69
2024/02/08 13:58:48;;;;;;;577.03;517.43;;;;;25.30;95515.00;;;;5043210;27;21848;-69
2024/02/08 14:01:39;;;;;;;565.93;505.90;;;;;24.30;95504.00;;;;5045010;27;21005;-72
2024/02/08 14:04:30;;;;;;;497.43;446.07;;;;;25.40;95514.00;;;;5044427;27;20331;-71
2024/02/08 14:07:20;;;;;;;588.90;525.93;;;;;23.90;95506.00;;;;5049396;27;20209;-69
2024/02/08 14:10:12;;;;;;;494.97;442.63;;;;;24.80;95511.00;;;;5045096;27;20339;-71
2024/02/08 14:13:06;;;;;;;529.93;470.47;;;;;25.80;95503.00;;;;5046809;27;20267;-72
2024/02/08 14:16:00;;;;;;;550.40;490.03;;;;;23.90;95517.00;;;;5051479;27;20237;-70
2024/02/08 14:18:53;;;;;;;498.83;446.03;;;;;18.80;95501.00;;;;5043951;27;20214;-67
2024/02/08 14:21:44;;;;;;;518.73;453.83;;;;;21.70;95508.00;;;;5048637;27;20203;-70
2024/02/08 14:27:05;;;;;;;491.27;414.53;;;;;23.40;95510.00;;;;5007646;28;20283;-69
2024/02/08 14:29:54;;;;;;;506.53;442.33;;;;;22.10;95511.00;;;;5005552;28;20255;-69
2024/02/08 14:32:43;;;;;;;413.10;367.77;;;;;20.10;95497.00;;;;5053353;28;20214;-71
2024/02/08 14:35:32;;;;;;;410.70;361.00;;;;;20.80;95511.00;;;;5073451;28;20229;-69
2024/02/08 14:38:23;;;;;;;412.30;350.03;;;;;21.90;95510.00;;;;5084720;28;20210;-69
2024/02/08 14:41:25;;;;;;;413.53;352.80;;;;;22.30;95511.00;;;;5081061;28;20207;-69
2024/02/08 14:44:18;;;;;;;428.43;342.87;;;;;21.80;95508.00;;;;5081719;28;20202;-69
2024/02/08 14:47:07;;;;;;;398.90;309.27;;;;;22.00;95516.00;;;;5084058;28;20230;-70
2024/02/08 14:49:58;;;;;;;387.93;304.60;;;;;21.30;95507.00;;;;5083516;28;20230;-69
2024/02/08 14:52:49;;;;;;;386.63;297.13;;;;;21.30;95510.00;;;;5088750;28;20222;-69
2024/02/08 14:55:45;;;;;;;378.93;278.90;;;;;21.30;95524.00;;;;5086848;28;20593;-68
2024/02/08 14:58:40;;;;;;;393.53;292.77;;;;;21.00;95522.00;;;;5082747;28;20587;-69
2024/02/08 15:01:38;;;;;;;384.53;275.50;;;;;20.50;95513.00;;;;5082405;28;20589;-69
2024/02/08 15:04:30;;;;;;;390.27;278.53;;;;;19.90;95503.00;;;;5086133;28;20211;-69
2024/02/08 15:07:47;;;;;;;391.97;265.23;;;;;19.50;95510.00;;;;5086293;28;20785;-69
2024/02/08 15:10:43;;;;;;;396.00;259.90;;;;;18.80;95501.00;;;;5083158;28;20226;-68
2024/02/08 15:13:45;;;;;;;377.20;224.83;;;;;18.30;95503.00;;;;5086099;28;20247;-70
2024/02/08 15:16:37;;;;;;;380.63;228.90;;;;;18.20;95500.00;;;;5086212;28;20225;-70
2024/02/08 15:19:26;;;;;;;377.47;198.70;;;;;17.90;95485.00;;;;5086011;28;20192;-69
2024/02/08 15:25:34;;;;;;;390.43;216.17;;;;;17.60;95476.00;;;;5084523;28;20238;-70
2024/02/08 15:28:33;;;;;;;372.97;214.43;;;;;17.00;95474.00;;;;5083031;28;20231;-70
2024/02/08 15:34:40;;;;;;;332.00;203.03;;;;;16.90;95471.00;;;;5084875;28;20261;-69
2024/02/08 15:37:28;;;;;;;323.73;189.23;;;;;16.00;95461.00;;;;5084427;28;20199;-69
2024/02/08 15:40:18;;;;;;;320.83;193.33;;;;;16.10;95454.00;;;;5083500;28;20730;-70
2024/02/08 15:43:10;;;;;;;303.67;184.03;;;;;16.00;95451.00;;;;5077951;28;20242;-69
2024/02/08 15:46:03;;;;;;;273.77;174.77;;;;;14.80;95451.00;;;;5084620;28;20215;-69
2024/02/08 15:48:54;;;;;;;258.60;164.37;;;;;14.60;95454.00;;;;5075296;28;20625;-68
2024/02/08 15:51:49;;;;;;;244.43;154.57;;;;;14.30;95449.00;;;;5087312;28;20215;-69
2024/02/08 15:54:38;;;;;;;238.17;151.00;;;;;14.20;95458.00;;;;5068400;28;20211;-68
2024/02/08 15:57:32;;;;;;;238.57;149.27;;;;;13.40;95450.00;;;;5077871;28;20203;-69
2024/02/08 16:01:01;;;;;;;232.03;149.13;;;;;13.30;95437.00;;;;5085340;28;20210;-71
2024/02/08 16:03:54;;;;;;;188.90;128.63;;;;;13.70;95438.00;;;;5086755;28;20230;-70
2024/02/08 16:06:53;;;;;;;178.93;124.37;;;;;14.00;95440.00;;;;5087165;28;20279;-69